<?xml version="1.0" encoding="UTF-8" standalone="no" ?>
<gpx xmlns="http://www.topografix.com/GPX/1/1" xmlns:xsi="http://www.w3.org/2001/XMLSchema-instance" xsi:schemaLocation="http://www.topografix.com/GPX/1/1 http://www.topografix.com/GPX/1/1/gpx.xsd" version="1.1" creator="VisuGPX - https://www.visugpx.com">
  <metadata>
    <name>Pic d'Anie, Sommet 2358m et Soum Couy : Depuis la Pierre Saint Martin</name>
  </metadata>
  <trk>
    <name><![CDATA[Pic d'Anie, Sommet 2358m et Soum Couy : Depuis la Pierre Saint Martin]]></name>
    <extensions>
      <line xmlns="http://www.topografix.com/GPX/gpx_style/0/2">
        <color>0000FF</color>
        <width>4</width>
      </line>
    </extensions>
    <trkseg>
      <trkpt lat="42.9747" lon="-0.74437">
        <ele>1622.36</ele>
        <time>2017-04-13T06:17:20Z</time>
      </trkpt>
      <trkpt lat="42.97392" lon="-0.7436">
        <ele>1631.49</ele>
        <time>2017-04-13T06:19:50Z</time>
      </trkpt>
      <trkpt lat="42.97343" lon="-0.74032">
        <ele>1657.45</ele>
        <time>2017-04-13T06:23:50Z</time>
      </trkpt>
      <trkpt lat="42.97118" lon="-0.74027">
        <ele>1687.25</ele>
        <time>2017-04-13T06:27:47Z</time>
      </trkpt>
      <trkpt lat="42.97052" lon="-0.73963">
        <ele>1706.48</ele>
        <time>2017-04-13T06:29:36Z</time>
      </trkpt>
      <trkpt lat="42.97014" lon="-0.74016">
        <ele>1711.76</ele>
        <time>2017-04-13T06:30:34Z</time>
      </trkpt>
      <trkpt lat="42.96956" lon="-0.74039">
        <ele>1714.17</ele>
        <time>2017-04-13T06:31:28Z</time>
      </trkpt>
      <trkpt lat="42.96681" lon="-0.73981">
        <ele>1763.68</ele>
        <time>2017-04-13T06:37:06Z</time>
      </trkpt>
      <trkpt lat="42.96511" lon="-0.74126">
        <ele>1798.76</ele>
        <time>2017-04-13T06:41:04Z</time>
      </trkpt>
      <trkpt lat="42.96417" lon="-0.74157">
        <ele>1810.78</ele>
        <time>2017-04-13T06:42:50Z</time>
      </trkpt>
      <trkpt lat="42.96364" lon="-0.74235">
        <ele>1826.16</ele>
        <time>2017-04-13T06:44:30Z</time>
      </trkpt>
      <trkpt lat="42.96335" lon="-0.7433">
        <ele>1841.06</ele>
        <time>2017-04-13T06:46:01Z</time>
      </trkpt>
      <trkpt lat="42.96282" lon="-0.74368">
        <ele>1852.12</ele>
        <time>2017-04-13T06:48:12Z</time>
      </trkpt>
      <trkpt lat="42.96218" lon="-0.74325">
        <ele>1855.48</ele>
        <time>2017-04-13T06:52:17Z</time>
      </trkpt>
      <trkpt lat="42.96071" lon="-0.74156">
        <ele>1878.07</ele>
        <time>2017-04-13T06:56:13Z</time>
      </trkpt>
      <trkpt lat="42.95946" lon="-0.7422">
        <ele>1907.87</ele>
        <time>2017-04-13T06:59:25Z</time>
      </trkpt>
      <trkpt lat="42.95828" lon="-0.74134">
        <ele>1926.14</ele>
        <time>2017-04-13T07:02:04Z</time>
      </trkpt>
      <trkpt lat="42.95594" lon="-0.74182">
        <ele>1986.7</ele>
        <time>2017-04-13T07:07:36Z</time>
      </trkpt>
      <trkpt lat="42.95442" lon="-0.74106">
        <ele>2021.31</ele>
        <time>2017-04-13T07:11:05Z</time>
      </trkpt>
      <trkpt lat="42.95368" lon="-0.74046">
        <ele>2027.56</ele>
        <time>2017-04-13T07:12:28Z</time>
      </trkpt>
      <trkpt lat="42.95131" lon="-0.73746">
        <ele>2071.3</ele>
        <time>2017-04-13T07:19:53Z</time>
      </trkpt>
      <trkpt lat="42.95066" lon="-0.73568">
        <ele>2109.27</ele>
        <time>2017-04-13T07:23:18Z</time>
      </trkpt>
      <trkpt lat="42.95009" lon="-0.73519">
        <ele>2127.05</ele>
        <time>2017-04-13T07:24:57Z</time>
      </trkpt>
      <trkpt lat="42.94964" lon="-0.73357">
        <ele>2147.72</ele>
        <time>2017-04-13T07:27:33Z</time>
      </trkpt>
      <trkpt lat="42.94979" lon="-0.73269">
        <ele>2160.22</ele>
        <time>2017-04-13T07:28:58Z</time>
      </trkpt>
      <trkpt lat="42.94926" lon="-0.73197">
        <ele>2181.85</ele>
        <time>2017-04-13T07:31:00Z</time>
      </trkpt>
      <trkpt lat="42.94853" lon="-0.73169">
        <ele>2194.35</ele>
        <time>2017-04-13T07:32:37Z</time>
      </trkpt>
      <trkpt lat="42.94801" lon="-0.73062">
        <ele>2199.63</ele>
        <time>2017-04-13T07:34:18Z</time>
      </trkpt>
      <trkpt lat="42.94756" lon="-0.73037">
        <ele>2197.71</ele>
        <time>2017-04-13T07:35:17Z</time>
      </trkpt>
      <trkpt lat="42.94715" lon="-0.73045">
        <ele>2192.9</ele>
        <time>2017-04-13T07:35:44Z</time>
      </trkpt>
      <trkpt lat="42.94684" lon="-0.73104">
        <ele>2182.81</ele>
        <time>2017-04-13T07:36:18Z</time>
      </trkpt>
      <trkpt lat="42.94658" lon="-0.73042">
        <ele>2176.56</ele>
        <time>2017-04-13T07:37:14Z</time>
      </trkpt>
      <trkpt lat="42.94528" lon="-0.72916">
        <ele>2174.16</ele>
        <time>2017-04-13T07:40:03Z</time>
      </trkpt>
      <trkpt lat="42.94356" lon="-0.72821">
        <ele>2167.43</ele>
        <time>2017-04-13T07:42:43Z</time>
      </trkpt>
      <trkpt lat="42.94161" lon="-0.72648">
        <ele>2200.59</ele>
        <time>2017-04-13T07:47:30Z</time>
      </trkpt>
      <trkpt lat="42.94158" lon="-0.72607">
        <ele>2210.69</ele>
        <time>2017-04-13T07:48:25Z</time>
      </trkpt>
      <trkpt lat="42.94113" lon="-0.72564">
        <ele>2226.07</ele>
        <time>2017-04-13T07:50:02Z</time>
      </trkpt>
      <trkpt lat="42.94118" lon="-0.72459">
        <ele>2250.58</ele>
        <time>2017-04-13T07:52:20Z</time>
      </trkpt>
      <trkpt lat="42.94152" lon="-0.72447">
        <ele>2259.24</ele>
        <time>2017-04-13T07:53:26Z</time>
      </trkpt>
      <trkpt lat="42.94149" lon="-0.72408">
        <ele>2264.04</ele>
        <time>2017-04-13T07:54:10Z</time>
      </trkpt>
      <trkpt lat="42.94237" lon="-0.72292">
        <ele>2298.65</ele>
        <time>2017-04-13T07:57:49Z</time>
      </trkpt>
      <trkpt lat="42.94221" lon="-0.72235">
        <ele>2319.8</ele>
        <time>2017-04-13T08:04:53Z</time>
      </trkpt>
      <trkpt lat="42.94286" lon="-0.72274">
        <ele>2337.58</ele>
        <time>2017-04-13T08:12:25Z</time>
      </trkpt>
      <trkpt lat="42.94289" lon="-0.72222">
        <ele>2355.85</ele>
        <time>2017-04-13T08:14:08Z</time>
      </trkpt>
      <trkpt lat="42.94326" lon="-0.72169">
        <ele>2392.38</ele>
        <time>2017-04-13T08:18:07Z</time>
      </trkpt>
      <trkpt lat="42.94307" lon="-0.72117">
        <ele>2414.01</ele>
        <time>2017-04-13T08:20:15Z</time>
      </trkpt>
      <trkpt lat="42.94356" lon="-0.72074">
        <ele>2450.54</ele>
        <time>2017-04-13T08:23:53Z</time>
      </trkpt>
      <trkpt lat="42.94426" lon="-0.72067">
        <ele>2497.16</ele>
        <time>2017-04-13T08:29:09Z</time>
      </trkpt>
      <trkpt lat="42.94337" lon="-0.7208">
        <ele>2443.33</ele>
        <time>2017-04-13T08:35:41Z</time>
      </trkpt>
      <trkpt lat="42.94311" lon="-0.72123">
        <ele>2417.37</ele>
        <time>2017-04-13T08:37:11Z</time>
      </trkpt>
      <trkpt lat="42.94331" lon="-0.72161">
        <ele>2399.11</ele>
        <time>2017-04-13T08:38:47Z</time>
      </trkpt>
      <trkpt lat="42.94322" lon="-0.72219">
        <ele>2373.63</ele>
        <time>2017-04-13T08:39:58Z</time>
      </trkpt>
      <trkpt lat="42.94291" lon="-0.72269">
        <ele>2345.27</ele>
        <time>2017-04-13T08:41:17Z</time>
      </trkpt>
      <trkpt lat="42.94226" lon="-0.72232">
        <ele>2327.01</ele>
        <time>2017-04-13T08:42:45Z</time>
      </trkpt>
      <trkpt lat="42.94242" lon="-0.72281">
        <ele>2317.4</ele>
        <time>2017-04-13T08:50:51Z</time>
      </trkpt>
      <trkpt lat="42.94165" lon="-0.72288">
        <ele>2304.9</ele>
        <time>2017-04-13T08:51:09Z</time>
      </trkpt>
      <trkpt lat="42.94124" lon="-0.724">
        <ele>2286.63</ele>
        <time>2017-04-13T08:51:37Z</time>
      </trkpt>
      <trkpt lat="42.94081" lon="-0.72423">
        <ele>2279.9</ele>
        <time>2017-04-13T08:52:13Z</time>
      </trkpt>
      <trkpt lat="42.94133" lon="-0.72526">
        <ele>2251.54</ele>
        <time>2017-04-13T08:52:40Z</time>
      </trkpt>
      <trkpt lat="42.94119" lon="-0.7256">
        <ele>2244.82</ele>
        <time>2017-04-13T08:52:48Z</time>
      </trkpt>
      <trkpt lat="42.94159" lon="-0.72635">
        <ele>2222.71</ele>
        <time>2017-04-13T08:53:06Z</time>
      </trkpt>
      <trkpt lat="42.94131" lon="-0.72691">
        <ele>2215.98</ele>
        <time>2017-04-13T08:53:15Z</time>
      </trkpt>
      <trkpt lat="42.94176" lon="-0.7278">
        <ele>2205.88</ele>
        <time>2017-04-13T08:53:29Z</time>
      </trkpt>
      <trkpt lat="42.94102" lon="-0.72783">
        <ele>2228.47</ele>
        <time>2017-04-13T09:02:10Z</time>
      </trkpt>
      <trkpt lat="42.94093" lon="-0.7285">
        <ele>2244.33</ele>
        <time>2017-04-13T09:03:38Z</time>
      </trkpt>
      <trkpt lat="42.94032" lon="-0.72863">
        <ele>2265</ele>
        <time>2017-04-13T09:05:42Z</time>
      </trkpt>
      <trkpt lat="42.94018" lon="-0.72911">
        <ele>2277.02</ele>
        <time>2017-04-13T09:06:50Z</time>
      </trkpt>
      <trkpt lat="42.93978" lon="-0.72879">
        <ele>2285.67</ele>
        <time>2017-04-13T09:08:06Z</time>
      </trkpt>
      <trkpt lat="42.93948" lon="-0.72913">
        <ele>2298.65</ele>
        <time>2017-04-13T09:09:19Z</time>
      </trkpt>
      <trkpt lat="42.93891" lon="-0.72888">
        <ele>2313.07</ele>
        <time>2017-04-13T09:10:51Z</time>
      </trkpt>
      <trkpt lat="42.9385" lon="-0.72923">
        <ele>2325.09</ele>
        <time>2017-04-13T09:12:04Z</time>
      </trkpt>
      <trkpt lat="42.93882" lon="-0.72977">
        <ele>2340.47</ele>
        <time>2017-04-13T09:13:56Z</time>
      </trkpt>
      <trkpt lat="42.93865" lon="-0.73011">
        <ele>2352.48</ele>
        <time>2017-04-13T09:15:13Z</time>
      </trkpt>
      <trkpt lat="42.93892" lon="-0.73079">
        <ele>2359.69</ele>
        <time>2017-04-13T09:26:52Z</time>
      </trkpt>
      <trkpt lat="42.93923" lon="-0.73047">
        <ele>2338.06</ele>
        <time>2017-04-13T09:27:10Z</time>
      </trkpt>
      <trkpt lat="42.93941" lon="-0.73068">
        <ele>2332.78</ele>
        <time>2017-04-13T09:27:17Z</time>
      </trkpt>
      <trkpt lat="42.93945" lon="-0.73034">
        <ele>2323.64</ele>
        <time>2017-04-13T09:27:26Z</time>
      </trkpt>
      <trkpt lat="42.93986" lon="-0.73066">
        <ele>2303.46</ele>
        <time>2017-04-13T09:27:43Z</time>
      </trkpt>
      <trkpt lat="42.93994" lon="-0.73012">
        <ele>2290.48</ele>
        <time>2017-04-13T09:27:53Z</time>
      </trkpt>
      <trkpt lat="42.94045" lon="-0.73037">
        <ele>2277.98</ele>
        <time>2017-04-13T09:28:17Z</time>
      </trkpt>
      <trkpt lat="42.94076" lon="-0.73004">
        <ele>2268.85</ele>
        <time>2017-04-13T09:28:24Z</time>
      </trkpt>
      <trkpt lat="42.94087" lon="-0.73026">
        <ele>2266.45</ele>
        <time>2017-04-13T09:28:29Z</time>
      </trkpt>
      <trkpt lat="42.94158" lon="-0.73014">
        <ele>2249.14</ele>
        <time>2017-04-13T09:28:48Z</time>
      </trkpt>
      <trkpt lat="42.94177" lon="-0.72975">
        <ele>2232.8</ele>
        <time>2017-04-13T09:28:58Z</time>
      </trkpt>
      <trkpt lat="42.9428" lon="-0.73031">
        <ele>2209.25</ele>
        <time>2017-04-13T09:29:43Z</time>
      </trkpt>
      <trkpt lat="42.94325" lon="-0.73014">
        <ele>2208.29</ele>
        <time>2017-04-13T09:30:01Z</time>
      </trkpt>
      <trkpt lat="42.94344" lon="-0.72973">
        <ele>2204.92</ele>
        <time>2017-04-13T09:30:23Z</time>
      </trkpt>
      <trkpt lat="42.94439" lon="-0.72994">
        <ele>2195.31</ele>
        <time>2017-04-13T09:30:43Z</time>
      </trkpt>
      <trkpt lat="42.94601" lon="-0.73103">
        <ele>2185.69</ele>
        <time>2017-04-13T09:31:36Z</time>
      </trkpt>
      <trkpt lat="42.94723" lon="-0.73039">
        <ele>2208.29</ele>
        <time>2017-04-13T09:35:49Z</time>
      </trkpt>
      <trkpt lat="42.94777" lon="-0.73056">
        <ele>2216.94</ele>
        <time>2017-04-13T09:38:34Z</time>
      </trkpt>
      <trkpt lat="42.94837" lon="-0.73149">
        <ele>2213.09</ele>
        <time>2017-04-13T09:39:16Z</time>
      </trkpt>
      <trkpt lat="42.94917" lon="-0.73188">
        <ele>2201.56</ele>
        <time>2017-04-13T09:39:51Z</time>
      </trkpt>
      <trkpt lat="42.94951" lon="-0.73265">
        <ele>2186.18</ele>
        <time>2017-04-13T09:40:11Z</time>
      </trkpt>
      <trkpt lat="42.94986" lon="-0.73263">
        <ele>2182.33</ele>
        <time>2017-04-13T09:40:22Z</time>
      </trkpt>
      <trkpt lat="42.94951" lon="-0.73359">
        <ele>2166.47</ele>
        <time>2017-04-13T09:40:38Z</time>
      </trkpt>
      <trkpt lat="42.94999" lon="-0.73498">
        <ele>2150.61</ele>
        <time>2017-04-13T09:41:13Z</time>
      </trkpt>
      <trkpt lat="42.94996" lon="-0.73615">
        <ele>2142.44</ele>
        <time>2017-04-13T09:41:38Z</time>
      </trkpt>
      <trkpt lat="42.95087" lon="-0.73697">
        <ele>2112.15</ele>
        <time>2017-04-13T09:41:59Z</time>
      </trkpt>
      <trkpt lat="42.95194" lon="-0.73879">
        <ele>2083.79</ele>
        <time>2017-04-13T09:42:23Z</time>
      </trkpt>
      <trkpt lat="42.95312" lon="-0.73976">
        <ele>2067.45</ele>
        <time>2017-04-13T09:42:44Z</time>
      </trkpt>
      <trkpt lat="42.95346" lon="-0.74041">
        <ele>2064.57</ele>
        <time>2017-04-13T09:42:58Z</time>
      </trkpt>
      <trkpt lat="42.9546" lon="-0.74122">
        <ele>2048.23</ele>
        <time>2017-04-13T09:43:18Z</time>
      </trkpt>
      <trkpt lat="42.95566" lon="-0.74106">
        <ele>2028.04</ele>
        <time>2017-04-13T09:43:56Z</time>
      </trkpt>
      <trkpt lat="42.95616" lon="-0.74175">
        <ele>2010.25</ele>
        <time>2017-04-13T09:44:14Z</time>
      </trkpt>
      <trkpt lat="42.95643" lon="-0.7415">
        <ele>2002.56</ele>
        <time>2017-04-13T09:44:20Z</time>
      </trkpt>
      <trkpt lat="42.95691" lon="-0.74172">
        <ele>1995.83</ele>
        <time>2017-04-13T09:44:29Z</time>
      </trkpt>
      <trkpt lat="42.95802" lon="-0.74159">
        <ele>1969.4</ele>
        <time>2017-04-13T09:44:46Z</time>
      </trkpt>
      <trkpt lat="42.95927" lon="-0.7419">
        <ele>1945.85</ele>
        <time>2017-04-13T09:45:19Z</time>
      </trkpt>
      <trkpt lat="42.95981" lon="-0.74232">
        <ele>1933.35</ele>
        <time>2017-04-13T09:45:34Z</time>
      </trkpt>
      <trkpt lat="42.96047" lon="-0.74213">
        <ele>1914.12</ele>
        <time>2017-04-13T09:45:50Z</time>
      </trkpt>
      <trkpt lat="42.96067" lon="-0.7426">
        <ele>1904.03</ele>
        <time>2017-04-13T09:46:00Z</time>
      </trkpt>
      <trkpt lat="42.963" lon="-0.7435">
        <ele>1889.61</ele>
        <time>2017-04-13T09:47:06Z</time>
      </trkpt>
      <trkpt lat="42.96312" lon="-0.74337">
        <ele>1887.69</ele>
        <time>2017-04-13T09:55:28Z</time>
      </trkpt>
    </trkseg>
  </trk>
</gpx>